sensor_id;sensor_type;location;lat;lon;timestamp;P1;durP1;ratioP1;P2;durP2;ratioP2
76228;SDS011;65021;53.174;18.160;2024-01-06T00:00:29;10.80;;;4.70;;
76228;SDS011;65021;53.174;18.160;2024-01-06T00:03:15;10.80;;;4.10;;
76228;SDS011;65021;53.174;18.160;2024-01-06T00:05:42;9.80;;;4.50;;
76228;SDS011;65021;53.174;18.160;2024-01-06T00:08:08;13.60;;;4.70;;
76228;SDS011;65021;53.174;18.160;2024-01-06T00:10:35;10.50;;;4.20;;
76228;SDS011;65021;53.174;18.160;2024-01-06T00:13:02;12.50;;;5.00;;
76228;SDS011;65021;53.174;18.160;2024-01-06T00:15:28;8.20;;;3.80;;
76228;SDS011;65021;53.174;18.160;2024-01-06T00:17:55;12.20;;;5.10;;
76228;SDS011;65021;53.174;18.160;2024-01-06T00:20:21;12.90;;;6.10;;
76228;SDS011;65021;53.174;18.160;2024-01-06T00:22:48;11.80;;;5.00;;
76228;SDS011;65021;53.174;18.160;2024-01-06T00:25:14;10.80;;;4.70;;
76228;SDS011;65021;53.174;18.160;2024-01-06T00:27:41;8.20;;;3.50;;
76228;SDS011;65021;53.174;18.160;2024-01-06T00:30:08;10.10;;;4.00;;
76228;SDS011;65021;53.174;18.160;2024-01-06T00:32:34;9.80;;;4.70;;
76228;SDS011;65021;53.174;18.160;2024-01-06T00:35:01;9.20;;;4.40;;
76228;SDS011;65021;53.174;18.160;2024-01-06T00:37:28;12.30;;;5.50;;
76228;SDS011;65021;53.174;18.160;2024-01-06T00:39:55;11.50;;;4.60;;
76228;SDS011;65021;53.174;18.160;2024-01-06T00:42:21;12.30;;;5.30;;
76228;SDS011;65021;53.174;18.160;2024-01-06T00:44:48;13.70;;;4.70;;
76228;SDS011;65021;53.174;18.160;2024-01-06T00:47:14;13.80;;;5.60;;
76228;SDS011;65021;53.174;18.160;2024-01-06T00:49:41;11.60;;;3.60;;
76228;SDS011;65021;53.174;18.160;2024-01-06T00:52:08;12.70;;;5.40;;
76228;SDS011;65021;53.174;18.160;2024-01-06T00:54:34;11.20;;;4.70;;
76228;SDS011;65021;53.174;18.160;2024-01-06T00:57:01;12.40;;;5.20;;
76228;SDS011;65021;53.174;18.160;2024-01-06T00:59:28;12.20;;;4.90;;
76228;SDS011;65021;53.174;18.160;2024-01-06T01:01:54;11.00;;;4.90;;
76228;SDS011;65021;53.174;18.160;2024-01-06T01:04:21;13.90;;;4.90;;
76228;SDS011;65021;53.174;18.160;2024-01-06T01:06:47;8.90;;;3.80;;
76228;SDS011;65021;53.174;18.160;2024-01-06T01:09:14;12.20;;;5.40;;
76228;SDS011;65021;53.174;18.160;2024-01-06T01:11:41;10.30;;;4.40;;
76228;SDS011;65021;53.174;18.160;2024-01-06T01:14:08;10.00;;;3.90;;
76228;SDS011;65021;53.174;18.160;2024-01-06T01:16:35;14.20;;;5.50;;
76228;SDS011;65021;53.174;18.160;2024-01-06T01:19:01;12.10;;;5.10;;
76228;SDS011;65021;53.174;18.160;2024-01-06T01:21:28;5.40;;;2.70;;
76228;SDS011;65021;53.174;18.160;2024-01-06T01:23:55;12.70;;;4.30;;
76228;SDS011;65021;53.174;18.160;2024-01-06T01:26:22;11.50;;;4.10;;
76228;SDS011;65021;53.174;18.160;2024-01-06T01:28:48;10.00;;;4.90;;
76228;SDS011;65021;53.174;18.160;2024-01-06T01:31:15;12.10;;;4.20;;
76228;SDS011;65021;53.174;18.160;2024-01-06T01:33:42;23.60;;;4.20;;
76228;SDS011;65021;53.174;18.160;2024-01-06T01:36:08;9.10;;;3.40;;
76228;SDS011;65021;53.174;18.160;2024-01-06T01:38:35;9.10;;;4.40;;
76228;SDS011;65021;53.174;18.160;2024-01-06T01:41:02;9.70;;;4.60;;
76228;SDS011;65021;53.174;18.160;2024-01-06T01:43:28;9.10;;;3.60;;
76228;SDS011;65021;53.174;18.160;2024-01-06T01:45:56;10.00;;;4.10;;
76228;SDS011;65021;53.174;18.160;2024-01-06T01:48:23;11.50;;;4.20;;
76228;SDS011;65021;53.174;18.160;2024-01-06T01:50:51;11.00;;;4.20;;
76228;SDS011;65021;53.174;18.160;2024-01-06T01:53:19;10.60;;;5.20;;
76228;SDS011;65021;53.174;18.160;2024-01-06T01:55:46;9.40;;;4.30;;
76228;SDS011;65021;53.174;18.160;2024-01-06T01:58:14;11.80;;;4.20;;
76228;SDS011;65021;53.174;18.160;2024-01-06T02:00:42;10.80;;;5.40;;
76228;SDS011;65021;53.174;18.160;2024-01-06T02:03:09;12.20;;;4.90;;
76228;SDS011;65021;53.174;18.160;2024-01-06T02:05:37;16.30;;;5.60;;
76228;SDS011;65021;53.174;18.160;2024-01-06T02:08:04;11.20;;;4.70;;
76228;SDS011;65021;53.174;18.160;2024-01-06T02:10:31;10.70;;;4.50;;
76228;SDS011;65021;53.174;18.160;2024-01-06T02:13:06;10.60;;;5.20;;
76228;SDS011;65021;53.174;18.160;2024-01-06T02:15:34;12.10;;;5.60;;
76228;SDS011;65021;53.174;18.160;2024-01-06T02:18:01;8.40;;;3.80;;
76228;SDS011;65021;53.174;18.160;2024-01-06T02:20:27;9.90;;;5.20;;
76228;SDS011;65021;53.174;18.160;2024-01-06T02:22:56;13.60;;;4.90;;
76228;SDS011;65021;53.174;18.160;2024-01-06T02:25:25;9.80;;;4.30;;
76228;SDS011;65021;53.174;18.160;2024-01-06T02:27:51;11.50;;;5.40;;
76228;SDS011;65021;53.174;18.160;2024-01-06T02:30:18;10.60;;;4.40;;
76228;SDS011;65021;53.174;18.160;2024-01-06T02:32:44;9.50;;;3.10;;
76228;SDS011;65021;53.174;18.160;2024-01-06T02:35:11;10.40;;;4.40;;
76228;SDS011;65021;53.174;18.160;2024-01-06T02:37:38;9.90;;;5.00;;
76228;SDS011;65021;53.174;18.160;2024-01-06T02:40:04;9.60;;;4.60;;
76228;SDS011;65021;53.174;18.160;2024-01-06T02:42:32;10.50;;;4.70;;
76228;SDS011;65021;53.174;18.160;2024-01-06T02:44:58;11.10;;;4.10;;
76228;SDS011;65021;53.174;18.160;2024-01-06T02:47:25;13.60;;;5.50;;
76228;SDS011;65021;53.174;18.160;2024-01-06T02:49:51;9.80;;;4.40;;
76228;SDS011;65021;53.174;18.160;2024-01-06T02:52:18;11.30;;;4.40;;
76228;SDS011;65021;53.174;18.160;2024-01-06T02:54:44;9.60;;;4.50;;
76228;SDS011;65021;53.174;18.160;2024-01-06T02:57:11;10.70;;;4.10;;
76228;SDS011;65021;53.174;18.160;2024-01-06T02:59:39;11.40;;;4.80;;
76228;SDS011;65021;53.174;18.160;2024-01-06T03:02:06;10.40;;;4.30;;
76228;SDS011;65021;53.174;18.160;2024-01-06T03:04:33;9.90;;;4.10;;
76228;SDS011;65021;53.174;18.160;2024-01-06T03:07:00;10.70;;;4.30;;
76228;SDS011;65021;53.174;18.160;2024-01-06T03:09:26;9.30;;;4.80;;
76228;SDS011;65021;53.174;18.160;2024-01-06T03:11:53;10.50;;;4.10;;
76228;SDS011;65021;53.174;18.160;2024-01-06T03:14:19;10.60;;;4.60;;
76228;SDS011;65021;53.174;18.160;2024-01-06T03:16:46;11.10;;;4.60;;
76228;SDS011;65021;53.174;18.160;2024-01-06T03:19:13;10.40;;;4.20;;
76228;SDS011;65021;53.174;18.160;2024-01-06T03:21:39;11.30;;;4.70;;
76228;SDS011;65021;53.174;18.160;2024-01-06T03:24:06;9.60;;;4.10;;
76228;SDS011;65021;53.174;18.160;2024-01-06T03:26:33;11.60;;;4.20;;
76228;SDS011;65021;53.174;18.160;2024-01-06T03:29:00;11.00;;;4.80;;
76228;SDS011;65021;53.174;18.160;2024-01-06T03:31:29;10.80;;;4.40;;
76228;SDS011;65021;53.174;18.160;2024-01-06T03:33:56;11.10;;;4.20;;
76228;SDS011;65021;53.174;18.160;2024-01-06T03:36:22;8.20;;;3.70;;
76228;SDS011;65021;53.174;18.160;2024-01-06T03:38:49;12.90;;;4.80;;
76228;SDS011;65021;53.174;18.160;2024-01-06T03:41:15;10.70;;;4.60;;
76228;SDS011;65021;53.174;18.160;2024-01-06T03:43:42;11.20;;;4.20;;
76228;SDS011;65021;53.174;18.160;2024-01-06T03:46:08;7.90;;;3.50;;
76228;SDS011;65021;53.174;18.160;2024-01-06T03:48:35;10.60;;;3.60;;
76228;SDS011;65021;53.174;18.160;2024-01-06T03:51:02;11.70;;;4.30;;
76228;SDS011;65021;53.174;18.160;2024-01-06T03:53:29;11.10;;;4.10;;
76228;SDS011;65021;53.174;18.160;2024-01-06T03:55:55;9.50;;;4.10;;
76228;SDS011;65021;53.174;18.160;2024-01-06T03:58:22;10.20;;;4.50;;
76228;SDS011;65021;53.174;18.160;2024-01-06T04:00:49;11.90;;;4.20;;
76228;SDS011;65021;53.174;18.160;2024-01-06T04:03:15;12.00;;;4.80;;
76228;SDS011;65021;53.174;18.160;2024-01-06T04:05:42;11.40;;;4.70;;
76228;SDS011;65021;53.174;18.160;2024-01-06T04:08:09;10.10;;;4.60;;
76228;SDS011;65021;53.174;18.160;2024-01-06T04:10:35;10.30;;;4.20;;
76228;SDS011;65021;53.174;18.160;2024-01-06T04:13:02;11.30;;;5.00;;
76228;SDS011;65021;53.174;18.160;2024-01-06T04:15:28;8.50;;;4.30;;
76228;SDS011;65021;53.174;18.160;2024-01-06T04:17:55;10.30;;;4.30;;
76228;SDS011;65021;53.174;18.160;2024-01-06T04:20:22;9.80;;;4.50;;
76228;SDS011;65021;53.174;18.160;2024-01-06T04:22:48;8.20;;;4.20;;
76228;SDS011;65021;53.174;18.160;2024-01-06T04:25:15;9.10;;;4.10;;
76228;SDS011;65021;53.174;18.160;2024-01-06T04:27:42;9.50;;;4.10;;
76228;SDS011;65021;53.174;18.160;2024-01-06T04:30:09;7.80;;;3.70;;
76228;SDS011;65021;53.174;18.160;2024-01-06T04:32:36;10.10;;;3.80;;
76228;SDS011;65021;53.174;18.160;2024-01-06T04:35:02;9.70;;;3.80;;
76228;SDS011;65021;53.174;18.160;2024-01-06T04:37:29;7.70;;;3.10;;
76228;SDS011;65021;53.174;18.160;2024-01-06T04:39:57;8.30;;;3.90;;
76228;SDS011;65021;53.174;18.160;2024-01-06T04:42:24;9.10;;;4.10;;
76228;SDS011;65021;53.174;18.160;2024-01-06T04:44:50;7.90;;;3.60;;
76228;SDS011;65021;53.174;18.160;2024-01-06T04:47:17;10.50;;;4.00;;
76228;SDS011;65021;53.174;18.160;2024-01-06T04:49:44;7.00;;;3.70;;
76228;SDS011;65021;53.174;18.160;2024-01-06T04:52:11;9.50;;;3.70;;
76228;SDS011;65021;53.174;18.160;2024-01-06T04:54:38;6.20;;;3.00;;
76228;SDS011;65021;53.174;18.160;2024-01-06T04:57:05;7.70;;;3.70;;
76228;SDS011;65021;53.174;18.160;2024-01-06T04:59:31;9.30;;;4.10;;
76228;SDS011;65021;53.174;18.160;2024-01-06T05:01:58;10.90;;;3.70;;
76228;SDS011;65021;53.174;18.160;2024-01-06T05:04:25;8.80;;;3.40;;
76228;SDS011;65021;53.174;18.160;2024-01-06T05:06:52;7.90;;;3.40;;
76228;SDS011;65021;53.174;18.160;2024-01-06T05:09:18;8.50;;;3.40;;
76228;SDS011;65021;53.174;18.160;2024-01-06T05:11:45;8.20;;;3.60;;
76228;SDS011;65021;53.174;18.160;2024-01-06T05:14:12;8.90;;;3.70;;
76228;SDS011;65021;53.174;18.160;2024-01-06T05:16:39;7.00;;;3.80;;
76228;SDS011;65021;53.174;18.160;2024-01-06T05:19:05;7.20;;;2.90;;
76228;SDS011;65021;53.174;18.160;2024-01-06T05:21:32;9.80;;;3.40;;
76228;SDS011;65021;53.174;18.160;2024-01-06T05:23:59;8.00;;;3.90;;
76228;SDS011;65021;53.174;18.160;2024-01-06T05:26:25;7.20;;;3.10;;
76228;SDS011;65021;53.174;18.160;2024-01-06T05:28:52;10.00;;;3.50;;
76228;SDS011;65021;53.174;18.160;2024-01-06T05:31:19;11.30;;;3.00;;
76228;SDS011;65021;53.174;18.160;2024-01-06T05:33:45;7.30;;;3.60;;
76228;SDS011;65021;53.174;18.160;2024-01-06T05:36:12;9.50;;;3.70;;
76228;SDS011;65021;53.174;18.160;2024-01-06T05:38:39;10.30;;;3.70;;
76228;SDS011;65021;53.174;18.160;2024-01-06T05:41:05;10.40;;;3.90;;
76228;SDS011;65021;53.174;18.160;2024-01-06T05:43:32;8.80;;;3.90;;
76228;SDS011;65021;53.174;18.160;2024-01-06T05:45:59;11.40;;;4.10;;
76228;SDS011;65021;53.174;18.160;2024-01-06T05:48:25;8.70;;;4.10;;
76228;SDS011;65021;53.174;18.160;2024-01-06T05:50:52;7.40;;;3.20;;
76228;SDS011;65021;53.174;18.160;2024-01-06T05:53:18;7.30;;;3.10;;
76228;SDS011;65021;53.174;18.160;2024-01-06T05:55:45;6.80;;;2.80;;
76228;SDS011;65021;53.174;18.160;2024-01-06T05:58:12;7.90;;;3.20;;
76228;SDS011;65021;53.174;18.160;2024-01-06T06:00:39;7.90;;;3.60;;
76228;SDS011;65021;53.174;18.160;2024-01-06T06:03:06;7.00;;;3.10;;
76228;SDS011;65021;53.174;18.160;2024-01-06T06:05:34;8.40;;;3.50;;
76228;SDS011;65021;53.174;18.160;2024-01-06T06:08:00;9.10;;;3.30;;
76228;SDS011;65021;53.174;18.160;2024-01-06T06:10:27;7.20;;;2.80;;
76228;SDS011;65021;53.174;18.160;2024-01-06T06:13:07;7.40;;;3.30;;
76228;SDS011;65021;53.174;18.160;2024-01-06T06:15:37;7.50;;;3.30;;
76228;SDS011;65021;53.174;18.160;2024-01-06T06:18:07;8.50;;;3.60;;
76228;SDS011;65021;53.174;18.160;2024-01-06T06:20:34;8.50;;;2.80;;
76228;SDS011;65021;53.174;18.160;2024-01-06T06:23:01;6.90;;;3.40;;
76228;SDS011;65021;53.174;18.160;2024-01-06T06:25:28;6.60;;;3.30;;
76228;SDS011;65021;53.174;18.160;2024-01-06T06:27:54;8.10;;;3.80;;
76228;SDS011;65021;53.174;18.160;2024-01-06T06:30:21;7.30;;;3.10;;
76228;SDS011;65021;53.174;18.160;2024-01-06T06:32:47;8.90;;;3.40;;
76228;SDS011;65021;53.174;18.160;2024-01-06T06:35:14;4.90;;;2.40;;
76228;SDS011;65021;53.174;18.160;2024-01-06T06:37:40;10.40;;;3.90;;
76228;SDS011;65021;53.174;18.160;2024-01-06T06:40:07;9.10;;;4.00;;
76228;SDS011;65021;53.174;18.160;2024-01-06T06:42:34;6.90;;;3.30;;
76228;SDS011;65021;53.174;18.160;2024-01-06T06:45:01;9.30;;;3.30;;
76228;SDS011;65021;53.174;18.160;2024-01-06T06:47:28;9.30;;;3.80;;
76228;SDS011;65021;53.174;18.160;2024-01-06T06:49:54;8.90;;;3.20;;
76228;SDS011;65021;53.174;18.160;2024-01-06T06:52:21;8.10;;;3.30;;
76228;SDS011;65021;53.174;18.160;2024-01-06T06:54:47;8.00;;;3.20;;
76228;SDS011;65021;53.174;18.160;2024-01-06T06:57:15;8.00;;;2.90;;
76228;SDS011;65021;53.174;18.160;2024-01-06T06:59:42;6.30;;;3.00;;
76228;SDS011;65021;53.174;18.160;2024-01-06T07:02:08;8.00;;;3.10;;
76228;SDS011;65021;53.174;18.160;2024-01-06T07:04:35;10.60;;;3.50;;
76228;SDS011;65021;53.174;18.160;2024-01-06T07:07:02;8.80;;;3.80;;
76228;SDS011;65021;53.174;18.160;2024-01-06T07:09:29;8.70;;;3.40;;
76228;SDS011;65021;53.174;18.160;2024-01-06T07:11:56;8.70;;;3.80;;
76228;SDS011;65021;53.174;18.160;2024-01-06T07:14:23;9.20;;;3.40;;
76228;SDS011;65021;53.174;18.160;2024-01-06T07:16:50;7.90;;;3.20;;
76228;SDS011;65021;53.174;18.160;2024-01-06T07:19:17;8.00;;;4.10;;
76228;SDS011;65021;53.174;18.160;2024-01-06T07:21:43;9.00;;;3.70;;
76228;SDS011;65021;53.174;18.160;2024-01-06T07:24:10;8.30;;;2.90;;
76228;SDS011;65021;53.174;18.160;2024-01-06T07:26:37;8.70;;;3.70;;
76228;SDS011;65021;53.174;18.160;2024-01-06T07:29:03;10.70;;;4.40;;
76228;SDS011;65021;53.174;18.160;2024-01-06T07:31:30;7.20;;;3.40;;
76228;SDS011;65021;53.174;18.160;2024-01-06T07:33:56;9.30;;;3.20;;
76228;SDS011;65021;53.174;18.160;2024-01-06T07:36:23;12.40;;;4.00;;
76228;SDS011;65021;53.174;18.160;2024-01-06T07:38:50;8.90;;;3.70;;
76228;SDS011;65021;53.174;18.160;2024-01-06T07:41:18;9.80;;;4.50;;
76228;SDS011;65021;53.174;18.160;2024-01-06T07:43:44;9.60;;;3.50;;
76228;SDS011;65021;53.174;18.160;2024-01-06T07:46:11;8.10;;;3.40;;
76228;SDS011;65021;53.174;18.160;2024-01-06T07:48:38;7.90;;;3.30;;
76228;SDS011;65021;53.174;18.160;2024-01-06T07:51:05;8.40;;;3.70;;
76228;SDS011;65021;53.174;18.160;2024-01-06T07:53:32;9.10;;;4.00;;
76228;SDS011;65021;53.174;18.160;2024-01-06T07:55:59;8.40;;;4.30;;
76228;SDS011;65021;53.174;18.160;2024-01-06T07:58:26;8.90;;;4.40;;
76228;SDS011;65021;53.174;18.160;2024-01-06T08:00:54;10.90;;;4.40;;
76228;SDS011;65021;53.174;18.160;2024-01-06T08:03:20;6.50;;;2.80;;
76228;SDS011;65021;53.174;18.160;2024-01-06T08:05:47;8.80;;;3.90;;
76228;SDS011;65021;53.174;18.160;2024-01-06T08:08:14;7.80;;;3.80;;
76228;SDS011;65021;53.174;18.160;2024-01-06T08:10:43;7.30;;;3.40;;
76228;SDS011;65021;53.174;18.160;2024-01-06T08:13:10;11.10;;;5.00;;
76228;SDS011;65021;53.174;18.160;2024-01-06T08:15:36;11.90;;;4.20;;
76228;SDS011;65021;53.174;18.160;2024-01-06T08:18:03;9.80;;;4.20;;
76228;SDS011;65021;53.174;18.160;2024-01-06T08:20:30;9.50;;;4.50;;
76228;SDS011;65021;53.174;18.160;2024-01-06T08:22:57;8.30;;;4.10;;
76228;SDS011;65021;53.174;18.160;2024-01-06T08:25:24;7.00;;;2.90;;
76228;SDS011;65021;53.174;18.160;2024-01-06T08:27:50;8.90;;;3.80;;
76228;SDS011;65021;53.174;18.160;2024-01-06T08:30:17;9.30;;;4.20;;
76228;SDS011;65021;53.174;18.160;2024-01-06T08:32:44;9.00;;;4.00;;
76228;SDS011;65021;53.174;18.160;2024-01-06T08:35:11;10.00;;;4.40;;
76228;SDS011;65021;53.174;18.160;2024-01-06T08:37:37;6.50;;;2.70;;
76228;SDS011;65021;53.174;18.160;2024-01-06T08:40:04;12.60;;;4.80;;
76228;SDS011;65021;53.174;18.160;2024-01-06T08:42:32;10.90;;;4.10;;
76228;SDS011;65021;53.174;18.160;2024-01-06T08:44:58;10.10;;;3.80;;
76228;SDS011;65021;53.174;18.160;2024-01-06T08:47:25;9.80;;;4.40;;
76228;SDS011;65021;53.174;18.160;2024-01-06T08:49:51;10.40;;;4.40;;
76228;SDS011;65021;53.174;18.160;2024-01-06T08:52:18;8.80;;;3.90;;
76228;SDS011;65021;53.174;18.160;2024-01-06T08:54:45;11.20;;;4.80;;
76228;SDS011;65021;53.174;18.160;2024-01-06T08:57:11;10.30;;;4.30;;
76228;SDS011;65021;53.174;18.160;2024-01-06T08:59:38;11.40;;;4.80;;
76228;SDS011;65021;53.174;18.160;2024-01-06T09:02:06;9.10;;;3.90;;
76228;SDS011;65021;53.174;18.160;2024-01-06T09:04:33;11.00;;;4.40;;
76228;SDS011;65021;53.174;18.160;2024-01-06T09:06:59;8.90;;;4.20;;
76228;SDS011;65021;53.174;18.160;2024-01-06T09:09:26;12.60;;;5.10;;
76228;SDS011;65021;53.174;18.160;2024-01-06T09:11:54;11.00;;;5.20;;
76228;SDS011;65021;53.174;18.160;2024-01-06T09:14:21;12.50;;;4.40;;
76228;SDS011;65021;53.174;18.160;2024-01-06T09:16:47;9.60;;;3.60;;
76228;SDS011;65021;53.174;18.160;2024-01-06T09:19:14;10.60;;;5.00;;
76228;SDS011;65021;53.174;18.160;2024-01-06T09:21:41;11.00;;;4.80;;
76228;SDS011;65021;53.174;18.160;2024-01-06T09:24:08;11.70;;;5.10;;
76228;SDS011;65021;53.174;18.160;2024-01-06T09:26:35;14.60;;;5.70;;
76228;SDS011;65021;53.174;18.160;2024-01-06T09:29:02;11.80;;;5.40;;
76228;SDS011;65021;53.174;18.160;2024-01-06T09:31:31;11.10;;;4.90;;
76228;SDS011;65021;53.174;18.160;2024-01-06T09:34:01;10.70;;;4.50;;
76228;SDS011;65021;53.174;18.160;2024-01-06T09:36:30;12.00;;;5.50;;
76228;SDS011;65021;53.174;18.160;2024-01-06T09:38:57;13.80;;;5.30;;
76228;SDS011;65021;53.174;18.160;2024-01-06T09:41:24;12.00;;;5.50;;
76228;SDS011;65021;53.174;18.160;2024-01-06T09:43:51;13.70;;;5.90;;
76228;SDS011;65021;53.174;18.160;2024-01-06T09:46:21;11.50;;;5.00;;
76228;SDS011;65021;53.174;18.160;2024-01-06T09:48:52;11.00;;;5.30;;
76228;SDS011;65021;53.174;18.160;2024-01-06T09:51:22;11.70;;;4.70;;
76228;SDS011;65021;53.174;18.160;2024-01-06T09:53:59;19.00;;;7.20;;
76228;SDS011;65021;53.174;18.160;2024-01-06T09:56:28;13.90;;;5.10;;
76228;SDS011;65021;53.174;18.160;2024-01-06T09:58:56;13.50;;;5.10;;
76228;SDS011;65021;53.174;18.160;2024-01-06T10:01:23;15.50;;;6.50;;
76228;SDS011;65021;53.174;18.160;2024-01-06T10:03:50;13.90;;;6.30;;
76228;SDS011;65021;53.174;18.160;2024-01-06T10:06:17;13.30;;;5.20;;
76228;SDS011;65021;53.174;18.160;2024-01-06T10:08:46;8.60;;;4.10;;
76228;SDS011;65021;53.174;18.160;2024-01-06T10:11:16;9.50;;;4.20;;
76228;SDS011;65021;53.174;18.160;2024-01-06T10:13:43;13.60;;;5.20;;
76228;SDS011;65021;53.174;18.160;2024-01-06T10:16:11;10.40;;;4.10;;
76228;SDS011;65021;53.174;18.160;2024-01-06T10:18:48;9.50;;;4.60;;
76228;SDS011;65021;53.174;18.160;2024-01-06T10:21:15;11.90;;;5.00;;
76228;SDS011;65021;53.174;18.160;2024-01-06T10:23:45;12.10;;;4.80;;
76228;SDS011;65021;53.174;18.160;2024-01-06T10:26:15;9.50;;;4.60;;
76228;SDS011;65021;53.174;18.160;2024-01-06T10:28:43;10.30;;;4.90;;
76228;SDS011;65021;53.174;18.160;2024-01-06T10:31:10;10.10;;;4.00;;
76228;SDS011;65021;53.174;18.160;2024-01-06T10:33:37;10.10;;;4.60;;
76228;SDS011;65021;53.174;18.160;2024-01-06T10:36:06;13.00;;;5.10;;
76228;SDS011;65021;53.174;18.160;2024-01-06T10:38:34;9.90;;;4.30;;
76228;SDS011;65021;53.174;18.160;2024-01-06T10:41:03;9.80;;;4.50;;
76228;SDS011;65021;53.174;18.160;2024-01-06T10:43:36;9.30;;;4.60;;
76228;SDS011;65021;53.174;18.160;2024-01-06T10:46:10;9.10;;;4.50;;
76228;SDS011;65021;53.174;18.160;2024-01-06T10:48:37;8.10;;;3.30;;
76228;SDS011;65021;53.174;18.160;2024-01-06T10:51:09;10.40;;;4.80;;
76228;SDS011;65021;53.174;18.160;2024-01-06T10:53:36;11.10;;;4.50;;
76228;SDS011;65021;53.174;18.160;2024-01-06T10:56:05;10.70;;;4.10;;
76228;SDS011;65021;53.174;18.160;2024-01-06T10:58:46;10.70;;;3.50;;
76228;SDS011;65021;53.174;18.160;2024-01-06T11:01:18;9.80;;;5.20;;
76228;SDS011;65021;53.174;18.160;2024-01-06T11:03:48;11.20;;;4.50;;
76228;SDS011;65021;53.174;18.160;2024-01-06T11:06:16;11.40;;;4.70;;
76228;SDS011;65021;53.174;18.160;2024-01-06T11:09:02;12.40;;;5.40;;
76228;SDS011;65021;53.174;18.160;2024-01-06T11:11:30;9.40;;;4.70;;
76228;SDS011;65021;53.174;18.160;2024-01-06T11:16:43;8.10;;;4.00;;
76228;SDS011;65021;53.174;18.160;2024-01-06T11:25:05;10.80;;;4.60;;
76228;SDS011;65021;53.174;18.160;2024-01-06T11:27:40;10.20;;;4.70;;
76228;SDS011;65021;53.174;18.160;2024-01-06T11:30:09;13.40;;;4.70;;
76228;SDS011;65021;53.174;18.160;2024-01-06T11:32:50;9.80;;;4.30;;
76228;SDS011;65021;53.174;18.160;2024-01-06T11:35:20;6.40;;;3.20;;
76228;SDS011;65021;53.174;18.160;2024-01-06T11:42:52;8.70;;;4.10;;
76228;SDS011;65021;53.174;18.160;2024-01-06T11:45:23;9.20;;;4.40;;
76228;SDS011;65021;53.174;18.160;2024-01-06T11:47:51;9.80;;;3.90;;
76228;SDS011;65021;53.174;18.160;2024-01-06T11:50:29;10.90;;;4.30;;
76228;SDS011;65021;53.174;18.160;2024-01-06T11:52:59;8.30;;;2.80;;
76228;SDS011;65021;53.174;18.160;2024-01-06T11:55:26;8.50;;;3.30;;
76228;SDS011;65021;53.174;18.160;2024-01-06T11:57:58;10.70;;;3.90;;
76228;SDS011;65021;53.174;18.160;2024-01-06T12:00:29;9.90;;;4.10;;
76228;SDS011;65021;53.174;18.160;2024-01-06T12:02:56;12.70;;;4.60;;
76228;SDS011;65021;53.174;18.160;2024-01-06T12:05:24;8.70;;;4.00;;
76228;SDS011;65021;53.174;18.160;2024-01-06T12:07:55;7.50;;;3.30;;
76228;SDS011;65021;53.174;18.160;2024-01-06T12:10:27;9.40;;;4.00;;
76228;SDS011;65021;53.174;18.160;2024-01-06T12:15:21;7.70;;;2.90;;
76228;SDS011;65021;53.174;18.160;2024-01-06T12:17:48;12.00;;;3.60;;
76228;SDS011;65021;53.174;18.160;2024-01-06T12:20:15;7.20;;;2.90;;
76228;SDS011;65021;53.174;18.160;2024-01-06T12:22:41;11.00;;;3.90;;
76228;SDS011;65021;53.174;18.160;2024-01-06T12:25:09;8.10;;;3.50;;
76228;SDS011;65021;53.174;18.160;2024-01-06T12:27:35;8.30;;;3.00;;
76228;SDS011;65021;53.174;18.160;2024-01-06T12:30:02;8.30;;;3.40;;
76228;SDS011;65021;53.174;18.160;2024-01-06T12:32:29;7.70;;;3.40;;
76228;SDS011;65021;53.174;18.160;2024-01-06T12:34:56;11.40;;;4.10;;
76228;SDS011;65021;53.174;18.160;2024-01-06T12:37:25;9.20;;;4.50;;
76228;SDS011;65021;53.174;18.160;2024-01-06T12:39:56;9.00;;;3.60;;
76228;SDS011;65021;53.174;18.160;2024-01-06T12:42:24;7.10;;;2.70;;
76228;SDS011;65021;53.174;18.160;2024-01-06T12:44:50;7.80;;;3.40;;
76228;SDS011;65021;53.174;18.160;2024-01-06T12:47:17;6.20;;;2.90;;
76228;SDS011;65021;53.174;18.160;2024-01-06T12:49:44;10.10;;;3.80;;
76228;SDS011;65021;53.174;18.160;2024-01-06T12:52:10;11.60;;;3.70;;
76228;SDS011;65021;53.174;18.160;2024-01-06T12:54:38;9.60;;;4.00;;
76228;SDS011;65021;53.174;18.160;2024-01-06T12:57:05;8.10;;;2.70;;
76228;SDS011;65021;53.174;18.160;2024-01-06T12:59:32;10.00;;;3.70;;
76228;SDS011;65021;53.174;18.160;2024-01-06T13:01:59;8.80;;;3.40;;
76228;SDS011;65021;53.174;18.160;2024-01-06T13:04:25;6.50;;;3.10;;
76228;SDS011;65021;53.174;18.160;2024-01-06T13:06:52;8.80;;;3.30;;
76228;SDS011;65021;53.174;18.160;2024-01-06T13:09:19;8.20;;;3.40;;
76228;SDS011;65021;53.174;18.160;2024-01-06T13:11:49;8.40;;;2.60;;
76228;SDS011;65021;53.174;18.160;2024-01-06T13:14:17;9.20;;;3.60;;
76228;SDS011;65021;53.174;18.160;2024-01-06T13:16:44;8.70;;;3.30;;
76228;SDS011;65021;53.174;18.160;2024-01-06T13:19:11;6.90;;;2.70;;
76228;SDS011;65021;53.174;18.160;2024-01-06T13:21:37;9.50;;;3.10;;
76228;SDS011;65021;53.174;18.160;2024-01-06T13:24:06;10.70;;;3.50;;
76228;SDS011;65021;53.174;18.160;2024-01-06T13:26:33;11.10;;;3.40;;
76228;SDS011;65021;53.174;18.160;2024-01-06T13:28:59;7.20;;;3.10;;
76228;SDS011;65021;53.174;18.160;2024-01-06T13:31:27;8.30;;;3.10;;
76228;SDS011;65021;53.174;18.160;2024-01-06T13:33:55;9.70;;;3.40;;
76228;SDS011;65021;53.174;18.160;2024-01-06T13:36:22;8.50;;;2.50;;
76228;SDS011;65021;53.174;18.160;2024-01-06T13:38:49;7.30;;;2.90;;
76228;SDS011;65021;53.174;18.160;2024-01-06T13:41:16;4.90;;;2.10;;
76228;SDS011;65021;53.174;18.160;2024-01-06T13:43:43;9.50;;;3.20;;
76228;SDS011;65021;53.174;18.160;2024-01-06T13:46:10;10.00;;;3.40;;
76228;SDS011;65021;53.174;18.160;2024-01-06T13:48:40;5.60;;;2.10;;
76228;SDS011;65021;53.174;18.160;2024-01-06T13:51:08;9.00;;;3.30;;
76228;SDS011;65021;53.174;18.160;2024-01-06T13:53:35;6.20;;;3.00;;
76228;SDS011;65021;53.174;18.160;2024-01-06T13:56:02;5.30;;;1.60;;
76228;SDS011;65021;53.174;18.160;2024-01-06T13:58:29;6.90;;;2.80;;
76228;SDS011;65021;53.174;18.160;2024-01-06T14:00:56;11.10;;;2.90;;
76228;SDS011;65021;53.174;18.160;2024-01-06T14:03:22;7.70;;;2.60;;
76228;SDS011;65021;53.174;18.160;2024-01-06T14:05:49;7.60;;;2.40;;
76228;SDS011;65021;53.174;18.160;2024-01-06T14:08:17;8.10;;;2.70;;
76228;SDS011;65021;53.174;18.160;2024-01-06T14:10:44;11.10;;;3.60;;
76228;SDS011;65021;53.174;18.160;2024-01-06T14:13:11;9.90;;;3.10;;
76228;SDS011;65021;53.174;18.160;2024-01-06T14:15:37;11.00;;;3.10;;
76228;SDS011;65021;53.174;18.160;2024-01-06T14:18:04;5.90;;;2.60;;
76228;SDS011;65021;53.174;18.160;2024-01-06T14:20:31;8.30;;;3.30;;
76228;SDS011;65021;53.174;18.160;2024-01-06T14:23:00;5.20;;;2.30;;
76228;SDS011;65021;53.174;18.160;2024-01-06T14:25:27;9.60;;;2.70;;
76228;SDS011;65021;53.174;18.160;2024-01-06T14:27:54;8.40;;;3.40;;
76228;SDS011;65021;53.174;18.160;2024-01-06T14:30:20;6.00;;;2.70;;
76228;SDS011;65021;53.174;18.160;2024-01-06T14:32:47;9.00;;;3.20;;
76228;SDS011;65021;53.174;18.160;2024-01-06T14:35:14;9.90;;;3.40;;
76228;SDS011;65021;53.174;18.160;2024-01-06T14:37:42;8.30;;;2.30;;
76228;SDS011;65021;53.174;18.160;2024-01-06T14:40:11;8.90;;;3.00;;
76228;SDS011;65021;53.174;18.160;2024-01-06T14:42:38;8.10;;;2.90;;
76228;SDS011;65021;53.174;18.160;2024-01-06T14:45:05;6.90;;;2.60;;